createdAt,value
2018-06-09T00:00:04.141Z,17.72
2018-06-09T00:05:04.153Z,17.76
2018-06-09T00:10:04.143Z,17.72
2018-06-09T00:15:04.148Z,17.66
2018-06-09T00:20:04.167Z,17.63
2018-06-09T00:25:04.158Z,17.61
2018-06-09T00:30:04.152Z,17.58
2018-06-09T00:35:04.237Z,17.56
2018-06-09T00:40:04.173Z,17.54
2018-06-09T00:45:04.171Z,17.52
2018-06-09T00:50:04.183Z,17.51
2018-06-09T00:55:04.195Z,17.47
2018-06-09T01:00:04.184Z,17.43
2018-06-09T01:05:04.194Z,17.38
2018-06-09T01:10:04.164Z,17.32
2018-06-09T01:15:04.198Z,17.28
2018-06-09T01:20:04.180Z,17.19
2018-06-09T01:25:04.192Z,17.14
2018-06-09T01:30:04.190Z,17.08
2018-06-09T01:35:04.197Z,17.03
2018-06-09T01:40:04.190Z,17
2018-06-09T01:45:04.198Z,16.95
2018-06-09T01:50:04.208Z,16.95
2018-06-09T01:55:04.200Z,16.92
2018-06-09T02:00:04.200Z,16.9
2018-06-09T02:05:04.210Z,16.85
2018-06-09T02:10:04.208Z,16.8
2018-06-09T02:15:04.212Z,16.78
2018-06-09T02:20:04.220Z,16.75
2018-06-09T02:25:04.214Z,16.72
2018-06-09T02:30:04.271Z,16.69
2018-06-09T02:35:04.227Z,16.64
2018-06-09T02:40:04.222Z,16.61
2018-06-09T02:45:04.234Z,16.6
2018-06-09T02:50:04.231Z,16.63
2018-06-09T02:55:04.249Z,16.67
2018-06-09T03:00:04.238Z,16.74
2018-06-09T03:05:04.237Z,16.76
2018-06-09T03:10:04.269Z,16.72
2018-06-09T03:15:04.261Z,16.72
2018-06-09T03:20:04.250Z,16.7
2018-06-09T03:25:04.261Z,16.72
2018-06-09T03:30:04.267Z,16.76
2018-06-09T03:35:04.255Z,16.86
2018-06-09T03:40:04.271Z,16.9
2018-06-09T03:45:04.265Z,16.98
2018-06-09T03:50:04.263Z,17.1
2018-06-09T03:55:04.351Z,17.25
2018-06-09T04:00:04.268Z,17.3
2018-06-09T04:05:04.271Z,17.26
2018-06-09T04:10:04.279Z,17.23
2018-06-09T04:15:04.296Z,17.21
2018-06-09T04:20:04.280Z,17.14
2018-06-09T04:25:04.287Z,17.11
2018-06-09T04:30:04.299Z,17.03
2018-06-09T04:35:04.288Z,16.91
2018-06-09T04:40:04.323Z,16.86
2018-06-09T04:45:04.296Z,16.88
2018-06-09T04:50:04.314Z,17.02
2018-06-09T04:55:04.299Z,17.22
2018-06-09T05:00:04.300Z,17.38
2018-06-09T05:05:04.312Z,17.55
2018-06-09T05:10:04.320Z,17.75
2018-06-09T05:15:04.338Z,18.03
2018-06-09T05:20:04.316Z,18.47
2018-06-09T05:25:04.335Z,18.68
2018-06-09T05:30:04.318Z,18.94
2018-06-09T05:35:04.326Z,19.16
2018-06-09T05:40:04.334Z,19.3
2018-06-09T05:45:04.326Z,19.48
2018-06-09T05:50:04.329Z,19.8
2018-06-09T05:55:04.349Z,19.97
2018-06-09T06:00:04.346Z,20.02
2018-06-09T06:05:04.342Z,20.2
2018-06-09T06:10:04.348Z,20.37
2018-06-09T06:15:04.347Z,20.64
2018-06-09T06:20:04.346Z,20.86
2018-06-09T06:25:04.370Z,21.22
2018-06-09T06:30:04.350Z,21.94
2018-06-09T06:35:04.352Z,22.48
2018-06-09T06:40:04.362Z,22.75
2018-06-09T06:45:04.409Z,23.64
2018-06-09T06:50:04.435Z,24.21
2018-06-09T06:55:04.885Z,24.24
2018-06-09T07:00:04.370Z,24.41
2018-06-09T07:05:04.365Z,24.35
2018-06-09T07:10:04.394Z,24.57
2018-06-09T07:15:04.373Z,24.62
2018-06-09T07:20:04.377Z,24.53
2018-06-09T07:25:04.395Z,24.49
2018-06-09T07:30:04.384Z,24.59
2018-06-09T07:35:04.424Z,24.64
2018-06-09T07:40:04.405Z,24.74
2018-06-09T07:45:04.392Z,24.87
2018-06-09T07:50:03.394Z,25.05
2018-06-09T07:55:03.397Z,25.14
2018-06-09T08:00:03.417Z,25.27
2018-06-09T08:05:03.401Z,25.37
2018-06-09T08:10:03.433Z,25.71
2018-06-09T08:15:03.423Z,25.93
2018-06-09T08:20:03.408Z,26.25
2018-06-09T08:25:03.422Z,26.16
2018-06-09T08:30:03.429Z,26.65
2018-06-09T08:35:03.424Z,26.89
2018-06-09T08:40:03.418Z,27.54
2018-06-09T08:45:03.437Z,28.44
2018-06-09T08:50:03.425Z,29.95
2018-06-09T08:55:03.435Z,30.62
2018-06-09T09:00:03.449Z,31.64
2018-06-09T09:05:03.435Z,32.45
2018-06-09T09:10:03.435Z,32.22
2018-06-09T09:15:03.451Z,32.1
2018-06-09T09:20:03.445Z,32.09
2018-06-09T09:25:03.450Z,32.47
2018-06-09T09:30:03.465Z,32.86
2018-06-09T09:35:03.456Z,33.9
2018-06-09T09:40:03.455Z,33.82
2018-06-09T09:45:03.468Z,34.12
2018-06-09T09:50:03.459Z,34.15
2018-06-09T09:55:03.537Z,34.71
2018-06-09T10:00:03.472Z,34.55
2018-06-09T10:05:03.482Z,34.5
2018-06-09T10:10:03.470Z,34.01
2018-06-09T10:15:03.475Z,34.2
2018-06-09T10:20:03.492Z,34.24
2018-06-09T10:25:03.485Z,34.45
2018-06-09T10:30:03.482Z,34.53
2018-06-09T10:35:03.501Z,35.3
2018-06-09T10:40:03.495Z,34.88
2018-06-09T10:45:03.489Z,35.4
2018-06-09T10:50:03.515Z,35.19
2018-06-09T10:55:03.495Z,35.36
2018-06-09T11:00:03.498Z,36.42
2018-06-09T11:05:03.514Z,36.45
2018-06-09T11:10:03.564Z,36.97
2018-06-09T11:15:03.497Z,38.01
2018-06-09T11:20:03.521Z,36.54
2018-06-09T11:25:03.510Z,36.92
2018-06-09T11:30:03.512Z,37.76
2018-06-09T11:35:03.533Z,39.06
2018-06-09T11:40:03.529Z,39.72
2018-06-09T11:45:03.520Z,40.41
2018-06-09T11:50:03.536Z,40.97
2018-06-09T11:55:03.539Z,41.72
2018-06-09T12:00:03.541Z,39.85
2018-06-09T12:05:03.564Z,41.35
2018-06-09T12:10:03.547Z,40.31
2018-06-09T12:15:03.540Z,40.36
2018-06-09T12:20:03.540Z,39.93
2018-06-09T12:25:03.632Z,39.72
2018-06-09T12:30:03.549Z,39.8
2018-06-09T12:35:03.551Z,39.74
2018-06-09T12:40:03.555Z,39.93
2018-06-09T12:45:03.552Z,39.97
2018-06-09T12:50:03.578Z,40.66
2018-06-09T12:55:03.561Z,43.16
2018-06-09T13:00:03.558Z,42.59
2018-06-09T13:05:03.591Z,42.2
2018-06-09T13:10:03.563Z,40.6
2018-06-09T13:15:03.568Z,39.49
2018-06-09T13:20:03.585Z,38.09
2018-06-09T13:25:03.583Z,38.83
2018-06-09T13:30:03.580Z,37.22
2018-06-09T13:35:03.602Z,36.78
2018-06-09T13:40:03.598Z,37.21
2018-06-09T13:45:03.586Z,36.91
2018-06-09T13:50:03.608Z,38.43
2018-06-09T13:55:03.596Z,38.03
2018-06-09T14:00:03.592Z,38.79
2018-06-09T14:05:03.608Z,39.47
2018-06-09T14:10:03.595Z,39.88
2018-06-09T14:15:03.598Z,40.57
2018-06-09T14:20:03.622Z,40.89
2018-06-09T14:25:03.618Z,41.86
2018-06-09T14:30:03.618Z,41.45
2018-06-09T14:35:03.636Z,40.6
2018-06-09T14:40:03.619Z,39.56
2018-06-09T14:45:03.615Z,39.58
2018-06-09T14:50:03.677Z,40.91
2018-06-09T14:55:03.621Z,40.45
2018-06-09T15:00:03.635Z,40.66
2018-06-09T15:05:03.638Z,40.48
2018-06-09T15:10:03.638Z,40.8
2018-06-09T15:15:03.647Z,39.77
2018-06-09T15:20:03.652Z,39.57
2018-06-09T15:25:03.639Z,40.43
2018-06-09T15:30:03.641Z,39.67
2018-06-09T15:35:03.653Z,39.8
2018-06-09T15:40:03.654Z,39.22
2018-06-09T15:45:03.653Z,37.26
2018-06-09T15:50:03.672Z,35.04
2018-06-09T15:55:03.659Z,33
2018-06-09T16:05:03.675Z,31.56
2018-06-09T16:10:03.667Z,31.25
2018-06-09T16:15:03.673Z,30.68
2018-06-09T16:20:03.712Z,30.25
2018-06-09T16:25:03.671Z,30.07
2018-06-09T16:30:03.685Z,29.63
2018-06-09T16:35:03.779Z,29.28
2018-06-09T16:40:03.685Z,29.11
2018-06-09T16:45:03.697Z,29.01
2018-06-09T16:50:03.703Z,28.86
2018-06-09T16:55:03.691Z,28.75
2018-06-09T17:00:03.701Z,28.6
2018-06-09T17:05:03.712Z,28.33
2018-06-09T17:10:03.705Z,28.19
2018-06-09T17:15:03.705Z,28.01
2018-06-09T17:20:03.714Z,27.81
2018-06-09T17:25:03.704Z,27.63
2018-06-09T17:30:03.712Z,27.46
2018-06-09T17:35:03.727Z,27.4
2018-06-09T17:40:03.714Z,27.23
2018-06-09T17:45:03.719Z,27.04
2018-06-09T17:50:03.725Z,27.05
2018-06-09T17:55:03.742Z,26.99
2018-06-09T18:00:03.728Z,26.77
2018-06-09T18:05:03.760Z,26.62
2018-06-09T18:10:03.745Z,26.55
2018-06-09T18:15:03.813Z,26.47
2018-06-09T18:20:03.742Z,26.38
2018-06-09T18:25:03.747Z,26.24
2018-06-09T18:30:03.743Z,26.1
2018-06-09T18:35:03.781Z,25.92
2018-06-09T18:40:03.757Z,25.78
2018-06-09T18:45:03.758Z,25.71
2018-06-09T18:50:03.755Z,25.62
2018-06-09T18:55:03.765Z,25.5
2018-06-09T19:00:03.773Z,25.37
2018-06-09T19:05:03.766Z,25.21
2018-06-09T19:10:03.763Z,25
2018-06-09T19:15:03.777Z,24.79
2018-06-09T19:20:03.772Z,24.61
2018-06-09T19:25:03.775Z,24.41
2018-06-09T19:30:03.784Z,24.16
2018-06-09T19:35:03.782Z,23.9
2018-06-09T19:40:03.785Z,23.61
2018-06-09T19:45:03.800Z,23.35
2018-06-09T19:50:03.794Z,23.09
2018-06-09T19:55:03.794Z,22.85
2018-06-09T20:00:03.813Z,22.64
2018-06-09T20:05:03.793Z,22.42
2018-06-09T20:10:03.802Z,22.23
2018-06-09T20:15:03.828Z,22.02
2018-06-09T20:20:03.809Z,21.84
2018-06-09T20:25:03.817Z,21.63
2018-06-09T20:30:03.813Z,21.51
2018-06-09T20:35:03.825Z,21.43
2018-06-09T20:40:03.815Z,21.31
2018-06-09T20:45:03.822Z,21.17
2018-06-09T20:50:03.836Z,21.02
2018-06-09T20:55:03.828Z,20.93
2018-06-09T21:00:03.828Z,20.84
2018-06-09T21:05:03.831Z,20.78
2018-06-09T21:10:03.843Z,20.66
2018-06-09T21:15:03.838Z,20.57
2018-06-09T21:20:03.842Z,20.48
2018-06-09T21:25:03.849Z,20.45
2018-06-09T21:30:03.842Z,20.44
2018-06-09T21:35:03.843Z,20.45
2018-06-09T21:40:03.856Z,20.4
2018-06-09T21:45:03.856Z,20.4
2018-06-09T21:50:03.852Z,20.41
2018-06-09T21:55:03.870Z,20.46
2018-06-09T22:00:03.857Z,20.37
2018-06-09T22:05:03.865Z,20.2
2018-06-09T22:10:03.940Z,19.97
2018-06-09T22:15:03.867Z,19.73
2018-06-09T22:20:03.868Z,19.55
2018-06-09T22:25:03.888Z,19.44
2018-06-09T22:30:03.875Z,19.41
2018-06-09T22:35:03.879Z,19.46
2018-06-09T22:40:03.896Z,19.48
2018-06-09T22:45:03.884Z,19.48
2018-06-09T22:50:03.887Z,19.52
2018-06-09T22:55:03.893Z,19.53
2018-06-09T23:00:03.897Z,19.53
2018-06-09T23:05:03.894Z,19.32
2018-06-09T23:10:03.908Z,19.14
2018-06-09T23:15:03.909Z,18.97
2018-06-09T23:20:03.904Z,18.82
2018-06-09T23:25:03.920Z,18.77
2018-06-09T23:30:03.929Z,18.57
2018-06-09T23:35:03.915Z,18.37
2018-06-09T23:40:03.926Z,18.23
2018-06-09T23:45:03.970Z,18.08
2018-06-09T23:50:03.927Z,17.89
2018-06-09T23:55:03.930Z,17.74
